Time;durP1;ratioP1;P1;durP2;ratioP2;P2;SDS_P1;SDS_P2;PMS_P1;PMS_P2;Temp;Humidity;BMP_temperature;BMP_pressure;BME280_temperature;BME280_humidity;BME280_pressure;Samples;Min_cycle;Max_cycle;Signal;HPM_P1;HPM_P2
2022/08/15 00:01:08;;;;;;;5.80;2.70;;;;;;;-148.56;100.00;61375.16;4911033;28;20022;-30
2022/08/15 00:03:35;;;;;;;4.18;2.72;;;;;;;-148.56;100.00;61375.16;4912536;28;20395;-34
2022/08/15 00:06:03;;;;;;;3.70;2.75;;;;;;;-148.56;100.00;61375.16;4908279;28;20104;-30
2022/08/15 00:08:30;;;;;;;4.60;2.85;;;;;;;-148.56;100.00;61375.16;4912163;28;20137;-31
2022/08/15 00:10:58;;;;;;;3.80;2.65;;;;;;;-148.56;100.00;61375.16;4912298;28;22626;-33
2022/08/15 00:13:25;;;;;;;3.58;2.70;;;;;;;-148.56;100.00;61375.16;4913696;28;20042;-33
2022/08/15 00:15:54;;;;;;;4.25;2.50;;;;;;;-148.56;100.00;61375.16;4910921;28;20026;-27
2022/08/15 00:18:20;;;;;;;3.05;2.28;;;;;;;-148.56;100.00;61375.16;4911781;28;20046;-33
2022/08/15 00:20:46;;;;;;;3.00;2.40;;;;;;;-148.56;100.00;61375.16;4920448;28;20419;-30
2022/08/15 00:23:13;;;;;;;3.00;2.28;;;;;;;-148.56;100.00;61375.16;4907654;28;20034;-26
2022/08/15 00:25:39;;;;;;;5.30;2.70;;;;;;;-148.56;100.00;61375.16;4916187;28;20381;-28
2022/08/15 00:28:05;;;;;;;3.83;2.50;;;;;;;-148.56;100.00;61375.16;4908930;28;20335;-32
2022/08/15 00:30:31;;;;;;;4.50;2.63;;;;;;;-148.56;100.00;61375.16;4915989;28;20146;-29
2022/08/15 00:32:57;;;;;;;3.03;2.33;;;;;;;-148.56;100.00;61375.16;4917740;28;20959;-30
2022/08/15 00:35:41;;;;;;;6.78;2.70;;;;;;;-148.56;100.00;61375.16;4910590;28;20038;-34
2022/08/15 00:38:09;;;;;;;4.28;2.63;;;;;;;-148.56;100.00;61375.16;4917748;28;20465;-33
2022/08/15 00:41:39;;;;;;;2.88;2.40;;;;;;;-148.56;100.00;61375.16;4910772;28;20030;-29
2022/08/15 00:43:22;;;;;;;6.50;2.70;;;;;;;-148.56;100.00;61375.16;4915570;28;20035;-33
2022/08/15 00:45:48;;;;;;;2.95;2.60;;;;;;;-148.56;100.00;61375.16;4910229;28;20035;-31
2022/08/15 00:50:57;;;;;;;4.75;2.95;;;;;;;-148.56;100.00;61375.16;4909470;28;20123;-28
2022/08/15 00:53:23;;;;;;;3.35;2.45;;;;;;;-148.56;100.00;61375.16;4913413;28;20357;-31
2022/08/15 00:55:48;;;;;;;4.60;2.78;;;;;;;-148.56;100.00;61375.16;4909858;28;20861;-31
2022/08/15 00:58:13;;;;;;;4.80;2.67;;;;;;;-148.56;100.00;61375.16;4915846;28;20041;-33
2022/08/15 01:00:44;;;;;;;3.47;2.50;;;;;;;-148.56;100.00;61375.16;4916800;28;20043;-29
2022/08/15 01:03:16;;;;;;;3.78;2.30;;;;;;;-148.56;100.00;61375.16;4912527;28;20030;-30
2022/08/15 01:05:45;;;;;;;;;;;;;;;-148.56;100.00;61375.16;4914284;28;21194;-28
2022/08/15 01:08:11;;;;;;;9.50;2.72;;;;;;;-148.56;100.00;61375.16;4915367;28;19921;-28
2022/08/15 01:10:37;;;;;;;3.88;2.50;;;;;;;-148.56;100.00;61375.16;4925907;28;20034;-27
2022/08/15 01:13:04;;;;;;;5.32;2.78;;;;;;;-148.56;100.00;61375.16;4916415;28;20053;-33
2022/08/15 01:15:31;;;;;;;4.70;2.60;;;;;;;-148.56;100.00;61375.16;4912618;28;20038;-28
2022/08/15 01:17:56;;;;;;;4.57;2.40;;;;;;;-148.56;100.00;61375.16;4919138;28;20034;-30
2022/08/15 01:20:24;;;;;;;3.13;2.47;;;;;;;-148.56;100.00;61375.16;4921542;28;20332;-29
2022/08/15 01:23:14;;;;;;;3.70;2.35;;;;;;;-148.56;100.00;61375.16;4914807;28;20120;-33
2022/08/15 01:25:53;;;;;;;5.72;2.97;;;;;;;-148.56;100.00;61375.16;4921583;28;20034;-27
2022/08/15 01:28:23;;;;;;;3.70;2.50;;;;;;;-148.56;100.00;61375.16;4912076;28;20120;-29
2022/08/15 01:30:54;;;;;;;4.13;2.13;;;;;;;-148.56;100.00;61375.16;4917304;28;20037;-30
2022/08/15 01:33:33;;;;;;;5.05;2.90;;;;;;;-148.56;100.00;61375.16;4912840;28;20038;-27
2022/08/15 01:35:59;;;;;;;4.03;2.63;;;;;;;-148.56;100.00;61375.16;4919907;28;20148;-29
2022/08/15 01:38:29;;;;;;;9.35;2.78;;;;;;;-148.56;100.00;61375.16;4919195;28;20392;-25
2022/08/15 01:41:01;;;;;;;5.18;2.53;;;;;;;-148.56;100.00;61375.16;4913966;28;20023;-31
2022/08/15 01:43:28;;;;;;;6.32;3.03;;;;;;;-148.56;100.00;61375.16;4908917;28;20560;-30
2022/08/15 01:45:54;;;;;;;5.93;2.90;;;;;;;-148.56;100.00;61375.16;4915552;28;20096;-30
2022/08/15 01:48:27;;;;;;;6.18;2.75;;;;;;;-148.56;100.00;61375.16;4912344;28;20030;-27
2022/08/15 01:50:58;;;;;;;5.60;2.70;;;;;;;-148.56;100.00;61375.16;4893524;28;20018;-27
2022/08/15 01:53:59;;;;;;;4.45;2.50;;;;;;;-148.56;100.00;61375.16;4896537;28;20038;-28
2022/08/15 01:56:34;;;;;;;4.63;2.90;;;;;;;-148.56;100.00;61375.16;4922667;28;20030;-30
2022/08/15 01:59:03;;;;;;;4.18;2.20;;;;;;;-148.56;100.00;61375.16;4921302;28;20034;-30
2022/08/15 02:01:48;;;;;;;5.78;2.30;;;;;;;-148.56;100.00;61375.16;4919054;28;20026;-29
2022/08/15 02:04:14;;;;;;;8.13;2.85;;;;;;;-148.56;100.00;61375.16;4922365;28;20062;-29
2022/08/15 02:06:40;;;;;;;5.47;2.80;;;;;;;-148.56;100.00;61375.16;4914241;28;20108;-33
2022/08/15 02:09:06;;;;;;;6.88;2.65;;;;;;;-148.56;100.00;61375.16;4912019;28;20763;-29
2022/08/15 02:11:32;;;;;;;5.32;2.60;;;;;;;-148.56;100.00;61375.16;4917335;28;20142;-33
2022/08/15 02:13:57;;;;;;;5.40;2.60;;;;;;;-148.56;100.00;61375.16;4920487;28;20074;-30
2022/08/15 02:16:27;;;;;;;5.22;2.60;;;;;;;-148.56;100.00;61375.16;4911447;28;20077;-27
2022/08/15 02:18:52;;;;;;;4.30;2.35;;;;;;;-148.56;100.00;61375.16;4914386;28;20042;-30
2022/08/15 02:21:18;;;;;;;3.30;2.40;;;;;;;-148.56;100.00;61375.16;4918579;28;20023;-31
2022/08/15 02:23:44;;;;;;;5.70;2.45;;;;;;;-148.56;100.00;61375.16;4915611;28;20065;-27
2022/08/15 02:26:09;;;;;;;3.33;2.40;;;;;;;-148.56;100.00;61375.16;4912777;28;20027;-26
2022/08/15 02:28:35;;;;;;;4.07;2.47;;;;;;;-148.56;100.00;61375.16;4906256;28;20483;-31
2022/08/15 02:31:00;;;;;;;3.22;2.15;;;;;;;-148.56;100.00;61375.16;4924875;28;20244;-30
2022/08/15 02:33:27;;;;;;;4.93;2.20;;;;;;;-148.56;100.00;61375.16;4906950;28;20030;-32
2022/08/15 02:35:53;;;;;;;4.82;2.53;;;;;;;-148.56;100.00;61375.16;4919750;28;20030;-32
2022/08/15 02:38:18;;;;;;;4.90;2.72;;;;;;;-148.56;100.00;61375.16;4928222;28;21164;-29
2022/08/15 02:40:43;;;;;;;7.35;2.63;;;;;;;-148.56;100.00;61375.16;4912348;28;20117;-30
2022/08/15 02:43:10;;;;;;;4.35;2.47;;;;;;;-148.56;100.00;61375.16;4913871;28;20038;-27
2022/08/15 02:45:39;;;;;;;5.78;2.63;;;;;;;-148.56;100.00;61375.16;4915766;28;20040;-30
2022/08/15 02:48:05;;;;;;;4.78;2.15;;;;;;;-148.56;100.00;61375.16;4914650;28;20042;-33
2022/08/15 02:50:32;;;;;;;4.57;2.45;;;;;;;-148.56;100.00;61375.16;4921692;28;20927;-33
2022/08/15 02:52:57;;;;;;;3.28;2.20;;;;;;;-148.56;100.00;61375.16;4906615;28;20031;-34
2022/08/15 02:55:23;;;;;;;2.63;2.05;;;;;;;-148.56;100.00;61375.16;4908453;28;20036;-31
2022/08/15 02:57:48;;;;;;;3.28;2.20;;;;;;;-148.56;100.00;61375.16;4909454;28;20038;-28
2022/08/15 03:00:17;;;;;;;5.90;2.40;;;;;;;-148.56;100.00;61375.16;4915341;28;20065;-28
2022/08/15 03:02:57;;;;;;;4.88;2.30;;;;;;;-148.56;100.00;61375.16;4915597;28;20742;-34
2022/08/15 03:05:23;;;;;;;6.57;2.80;;;;;;;-148.56;100.00;61375.16;4912694;28;20386;-29
2022/08/15 03:07:49;;;;;;;2.40;2.15;;;;;;;-148.56;100.00;61375.16;4910867;28;20365;-31
2022/08/15 03:10:14;;;;;;;4.82;2.40;;;;;;;-148.56;100.00;61375.16;4916998;28;22428;-28
2022/08/15 03:13:05;;;;;;;4.40;2.55;;;;;;;-148.56;100.00;61375.16;4910041;28;20048;-29
2022/08/15 03:15:39;;;;;;;3.72;2.40;;;;;;;-148.56;100.00;61375.16;4931291;28;20030;-27
2022/08/15 03:18:05;;;;;;;4.45;2.33;;;;;;;-148.56;100.00;61375.16;4908365;28;20038;-30
2022/08/15 03:20:31;;;;;;;3.85;2.55;;;;;;;-148.56;100.00;61375.16;4912659;28;20033;-30
2022/08/15 03:22:57;;;;;;;3.63;2.25;;;;;;;-148.56;100.00;61375.16;4915558;28;20147;-31
2022/08/15 03:25:25;;;;;;;5.18;2.53;;;;;;;-148.56;100.00;61375.16;4912584;28;20121;-28
2022/08/15 03:27:51;;;;;;;3.80;2.20;;;;;;;-148.56;100.00;61375.16;4914587;28;20358;-33
2022/08/15 03:30:16;;;;;;;3.55;2.35;;;;;;;-148.56;100.00;61375.16;4920438;28;20034;-30
2022/08/15 03:32:56;;;;;;;3.67;2.38;;;;;;;-148.56;100.00;61375.16;4919954;28;20037;-31
2022/08/15 03:35:23;;;;;;;3.22;2.33;;;;;;;-148.56;100.00;61375.16;4917671;28;20034;-31
2022/08/15 03:37:49;;;;;;;3.53;2.15;;;;;;;-148.56;100.00;61375.16;4912318;28;20085;-31
2022/08/15 03:40:14;;;;;;;3.90;2.30;;;;;;;-148.56;100.00;61375.16;4907483;28;20046;-34
2022/08/15 03:42:53;;;;;;;2.53;2.13;;;;;;;-148.56;100.00;61375.16;4914152;28;20025;-32
2022/08/15 03:45:18;;;;;;;6.15;2.50;;;;;;;-148.56;100.00;61375.16;4908893;28;20034;-32
2022/08/15 03:47:43;;;;;;;4.47;2.30;;;;;;;-148.56;100.00;61375.16;4918490;28;20093;-26
2022/08/15 03:50:12;;;;;;;4.20;2.55;;;;;;;-148.56;100.00;61375.16;4912587;28;21737;-25
2022/08/15 03:52:50;;;;;;;6.90;2.58;;;;;;;-148.56;100.00;61375.16;4921329;28;20042;-27
2022/08/15 03:55:16;;;;;;;5.18;2.20;;;;;;;-148.56;100.00;61375.16;4911998;28;20053;-32
2022/08/15 03:57:43;;;;;;;3.55;2.47;;;;;;;-148.56;100.00;61375.16;4909945;28;20056;-31
2022/08/15 04:00:11;;;;;;;3.85;2.25;;;;;;;-148.56;100.00;61375.16;4913710;28;20039;-32
2022/08/15 04:02:36;;;;;;;3.22;2.03;;;;;;;-148.56;100.00;61375.16;4924466;28;20088;-32
2022/08/15 04:05:02;;;;;;;4.25;2.17;;;;;;;-148.56;100.00;61375.16;4911208;28;20042;-30
2022/08/15 04:07:28;;;;;;;4.47;2.30;;;;;;;-148.56;100.00;61375.16;4909354;28;20934;-31
2022/08/15 04:09:53;;;;;;;3.08;2.05;;;;;;;-148.56;100.00;61375.16;4908861;28;20543;-27
2022/08/15 04:12:30;;;;;;;4.22;2.20;;;;;;;-148.56;100.00;61375.16;4919499;28;20453;-34
2022/08/15 04:14:55;;;;;;;4.32;2.03;;;;;;;-148.56;100.00;61375.16;4914764;28;20132;-29
2022/08/15 04:17:21;;;;;;;3.60;2.22;;;;;;;-148.56;100.00;61375.16;4913819;28;20034;-30
2022/08/15 04:19:47;;;;;;;7.55;2.17;;;;;;;-148.56;100.00;61375.16;4919740;28;20378;-29
2022/08/15 04:22:12;;;;;;;5.55;2.13;;;;;;;-148.56;100.00;61375.16;4927081;28;21628;-31
2022/08/15 04:24:38;;;;;;;7.40;2.53;;;;;;;-148.56;100.00;61375.16;4918059;28;20171;-32
2022/08/15 04:27:03;;;;;;;7.40;2.53;;;;;;;-148.56;100.00;61375.16;4924867;28;20039;-28
2022/08/15 04:29:28;;;;;;;6.03;2.10;;;;;;;-148.56;100.00;61375.16;4914165;28;20026;-27
2022/08/15 04:31:56;;;;;;;8.48;2.53;;;;;;;-148.56;100.00;61375.16;4914440;28;20739;-28
2022/08/15 04:34:21;;;;;;;4.93;2.20;;;;;;;-148.56;100.00;61375.16;4908227;28;21160;-30
2022/08/15 04:36:47;;;;;;;5.43;2.20;;;;;;;-148.56;100.00;61375.16;4921068;28;20920;-31
2022/08/15 04:39:12;;;;;;;4.13;2.00;;;;;;;-148.56;100.00;61375.16;4911954;28;20038;-27
2022/08/15 04:41:38;;;;;;;5.18;1.98;;;;;;;-148.56;100.00;61375.16;4910475;28;20518;-25
2022/08/15 04:44:04;;;;;;;4.70;2.10;;;;;;;-148.56;100.00;61375.16;4920036;28;20112;-26
2022/08/15 04:46:29;;;;;;;4.03;2.10;;;;;;;-148.56;100.00;61375.16;4917242;28;20145;-29
2022/08/15 04:48:56;;;;;;;4.80;1.80;;;;;;;-148.56;100.00;61375.16;4917046;28;20034;-28
2022/08/15 04:51:21;;;;;;;4.47;2.03;;;;;;;-148.56;100.00;61375.16;4914104;28;20104;-28
2022/08/15 04:53:46;;;;;;;4.60;2.20;;;;;;;-148.56;100.00;61375.16;4910809;28;20228;-31
2022/08/15 04:56:12;;;;;;;8.98;2.20;;;;;;;-148.56;100.00;61375.16;4921925;28;20356;-28
2022/08/15 04:58:37;;;;;;;4.97;2.10;;;;;;;-148.56;100.00;61375.16;4914593;28;20030;-32
2022/08/15 05:01:08;;;;;;;4.50;1.95;;;;;;;-148.56;100.00;61375.16;4917691;28;21575;-32
2022/08/15 05:03:34;;;;;;;4.10;2.07;;;;;;;-148.56;100.00;61375.16;4916686;28;20571;-27
2022/08/15 05:06:01;;;;;;;2.72;1.77;;;;;;;-148.56;100.00;61375.16;4920247;28;20033;-28
2022/08/15 05:08:28;;;;;;;3.10;1.77;;;;;;;-148.56;100.00;61375.16;4917084;28;21050;-28
2022/08/15 05:11:14;;;;;;;4.95;1.70;;;;;;;-148.56;100.00;61375.16;4914715;28;20113;-32
2022/08/15 05:13:40;;;;;;;4.45;1.80;;;;;;;-148.56;100.00;61375.16;4906927;28;20058;-26
2022/08/15 05:16:07;;;;;;;3.85;1.73;;;;;;;-148.56;100.00;61375.16;4920330;28;20527;-30
2022/08/15 05:18:34;;;;;;;4.68;2.13;;;;;;;-148.56;100.00;61375.16;4920136;28;20214;-27
2022/08/15 05:20:59;;;;;;;3.78;1.92;;;;;;;-148.56;100.00;61375.16;4910741;28;20030;-32
2022/08/15 05:23:25;;;;;;;3.60;1.98;;;;;;;-148.56;100.00;61375.16;4926851;28;20026;-30
2022/08/15 05:25:56;;;;;;;4.25;1.67;;;;;;;-148.56;100.00;61375.16;4919574;28;20129;-32
2022/08/15 05:28:22;;;;;;;4.75;1.80;;;;;;;-148.56;100.00;61375.16;4914304;28;21023;-30
2022/08/15 05:30:48;;;;;;;4.40;1.90;;;;;;;-148.56;100.00;61375.16;4920379;28;20058;-31
2022/08/15 05:33:15;;;;;;;7.20;2.10;;;;;;;-148.56;100.00;61375.16;4913100;28;20613;-29
2022/08/15 05:35:42;;;;;;;3.38;1.98;;;;;;;-148.56;100.00;61375.16;4922812;28;20037;-30
2022/08/15 05:38:11;;;;;;;7.28;1.80;;;;;;;-148.56;100.00;61375.16;4912489;28;20034;-33
2022/08/15 05:40:44;;;;;;;4.75;2.22;;;;;;;-148.56;100.00;61375.16;4918362;28;20041;-28
2022/08/15 05:43:12;;;;;;;3.13;1.80;;;;;;;-148.56;100.00;61375.16;4925440;28;20041;-25
2022/08/15 05:45:41;;;;;;;3.08;1.90;;;;;;;-148.56;100.00;61375.16;4928266;28;20057;-28
2022/08/15 05:48:20;;;;;;;5.57;1.90;;;;;;;-148.56;100.00;61375.16;4923550;28;20076;-31
2022/08/15 05:51:05;;;;;;;4.22;1.83;;;;;;;-148.56;100.00;61375.16;4931945;28;21227;-29
2022/08/15 05:53:36;;;;;;;3.67;1.80;;;;;;;-148.56;100.00;61375.16;4928665;28;20026;-28
2022/08/15 05:56:17;;;;;;;4.55;2.22;;;;;;;-148.56;100.00;61375.16;4933161;28;20639;-31
2022/08/15 05:58:48;;;;;;;3.90;1.80;;;;;;;-148.56;100.00;61375.16;4931580;28;20783;-28
2022/08/15 06:01:30;;;;;;;4.03;1.77;;;;;;;-148.56;100.00;61375.16;4924981;28;20721;-29
2022/08/15 06:04:02;;;;;;;6.43;1.75;;;;;;;-148.56;100.00;61375.16;4913030;28;20140;-26
2022/08/15 06:06:30;;;;;;;3.97;1.75;;;;;;;-148.56;100.00;61375.16;4909937;28;23564;-28
2022/08/15 06:09:06;;;;;;;4.05;1.60;;;;;;;-148.56;100.00;61375.16;4917241;28;21135;-32
2022/08/15 06:11:37;;;;;;;3.88;1.60;;;;;;;-148.56;100.00;61375.16;4915349;28;20022;-29
2022/08/15 06:14:19;;;;;;;8.85;1.85;;;;;;;-148.56;100.00;61375.16;4922529;28;20034;-30
2022/08/15 06:16:50;;;;;;;2.13;1.50;;;;;;;-148.56;100.00;61375.16;4909873;28;20038;-26
2022/08/15 06:19:24;;;;;;;3.78;1.80;;;;;;;-148.56;100.00;61375.16;4921040;28;20034;-28
2022/08/15 06:22:09;;;;;;;4.13;1.70;;;;;;;-148.56;100.00;61375.16;4908716;28;20027;-32
2022/08/15 06:24:46;;;;;;;2.92;1.75;;;;;;;-148.56;100.00;61375.16;4909094;28;20570;-28
2022/08/15 06:27:25;;;;;;;5.18;1.92;;;;;;;-148.56;100.00;61375.16;4917220;28;20598;-27
2022/08/15 06:30:09;;;;;;;7.70;2.30;;;;;;;-148.56;100.00;61375.16;4914392;28;20399;-30
2022/08/15 06:32:46;;;;;;;6.40;2.13;;;;;;;-148.56;100.00;61375.16;4911343;28;20034;-30
2022/08/15 06:35:14;;;;;;;4.05;2.20;;;;;;;-148.56;100.00;61375.16;4921142;28;20062;-27
2022/08/15 06:38:01;;;;;;;7.85;2.58;;;;;;;-148.56;100.00;61375.16;4923718;28;20089;-28
2022/08/15 06:40:54;;;;;;;7.05;2.20;;;;;;;-148.56;100.00;61375.16;4910567;28;20038;-29
2022/08/15 06:43:19;;;;;;;5.82;1.92;;;;;;;-148.56;100.00;61375.16;4914366;28;20031;-31
2022/08/15 06:45:47;;;;;;;4.15;1.85;;;;;;;-148.56;100.00;61375.16;4926282;28;20046;-33
2022/08/15 06:48:14;;;;;;;3.42;1.70;;;;;;;-148.56;100.00;61375.16;4900529;28;21719;-33
2022/08/15 06:50:42;;;;;;;2.95;1.90;;;;;;;-148.56;100.00;61375.16;4912175;28;20943;-28
2022/08/15 06:53:17;;;;;;;5.80;2.08;;;;;;;-148.56;100.00;61375.16;4912999;28;20425;-32
2022/08/15 06:55:43;;;;;;;4.10;2.00;;;;;;;-148.56;100.00;61375.16;4897828;28;20352;-27
2022/08/15 06:58:12;;;;;;;2.97;1.60;;;;;;;-148.56;100.00;61375.16;4920757;28;20081;-25
2022/08/15 07:00:52;;;;;;;3.28;1.50;;;;;;;-148.56;100.00;61375.16;4913791;28;21014;-31
2022/08/15 07:03:33;;;;;;;2.95;1.60;;;;;;;-148.56;100.00;61375.16;4914551;28;20038;-29
2022/08/15 07:05:58;;;;;;;3.15;1.58;;;;;;;-148.56;100.00;61375.16;4901956;28;20038;-30
2022/08/15 07:08:33;;;;;;;2.45;1.80;;;;;;;-148.56;100.00;61375.16;4911788;28;20030;-29
2022/08/15 07:11:22;;;;;;;6.68;1.70;;;;;;;-148.56;100.00;61375.16;4938236;28;20036;-26
2022/08/15 07:14:06;;;;;;;8.13;1.77;;;;;;;-148.56;100.00;61375.16;4911296;28;20046;-28
2022/08/15 07:17:00;;;;;;;3.42;1.73;;;;;;;-148.56;100.00;61375.16;4925411;28;20033;-32
2022/08/15 07:19:26;;;;;;;3.92;1.80;;;;;;;-148.56;100.00;61375.16;4909650;28;20244;-28
2022/08/15 07:21:52;;;;;;;4.63;1.50;;;;;;;-148.56;100.00;61375.16;4918811;28;20038;-26
2022/08/15 07:24:17;;;;;;;2.88;1.55;;;;;;;-148.56;100.00;61375.16;4911956;28;20406;-25
2022/08/15 07:26:46;;;;;;;4.43;1.40;;;;;;;-148.56;100.00;61375.16;4907638;28;22398;-29
2022/08/15 07:29:14;;;;;;;2.75;1.48;;;;;;;-148.56;100.00;61375.16;4906994;28;21637;-28
2022/08/15 07:31:43;;;;;;;3.72;1.60;;;;;;;-148.56;100.00;61375.16;4920573;28;20027;-27
2022/08/15 07:34:21;;;;;;;2.75;1.48;;;;;;;-148.56;100.00;61375.16;4913318;28;20045;-29
2022/08/15 07:37:09;;;;;;;3.45;1.80;;;;;;;-148.56;100.00;61375.16;4910674;28;20623;-28
2022/08/15 07:39:37;;;;;;;2.92;1.55;;;;;;;-148.56;100.00;61375.16;4914497;28;20039;-28
2022/08/15 07:42:20;;;;;;;2.75;1.63;;;;;;;-148.56;100.00;61375.16;4910833;28;20034;-31
2022/08/15 07:44:57;;;;;;;3.67;1.55;;;;;;;-148.56;100.00;61375.16;4908172;28;20042;-29
2022/08/15 07:47:28;;;;;;;3.05;1.50;;;;;;;-148.56;100.00;61375.16;4898620;28;21160;-27
2022/08/15 07:50:25;;;;;;;2.40;1.42;;;;;;;-148.56;100.00;61375.16;4909294;28;20070;-30
2022/08/15 07:53:24;;;;;;;3.50;1.60;;;;;;;-148.56;100.00;61375.16;4910059;28;20042;-31
2022/08/15 07:56:04;;;;;;;2.83;1.70;;;;;;;-148.56;100.00;61375.16;4922180;28;20053;-26
2022/08/15 07:58:30;;;;;;;2.33;1.60;;;;;;;-148.56;100.00;61375.16;4911525;28;20030;-31
2022/08/15 08:01:27;;;;;;;4.43;1.60;;;;;;;-148.56;100.00;61375.16;4912566;28;20145;-32
2022/08/15 08:04:05;;;;;;;1.80;1.30;;;;;;;-148.56;100.00;61375.16;4911703;28;20145;-29
2022/08/15 08:06:43;;;;;;;3.72;1.58;;;;;;;-148.56;100.00;61375.16;4920147;28;20034;-31
2022/08/15 08:09:35;;;;;;;3.55;1.27;;;;;;;-148.56;100.00;61375.16;4899887;28;21185;-24
2022/08/15 08:12:28;;;;;;;2.55;1.25;;;;;;;-148.56;100.00;61375.16;4904522;28;20061;-25
2022/08/15 08:15:17;;;;;;;2.63;1.40;;;;;;;-148.56;100.00;61375.16;4912242;28;20698;-32
2022/08/15 08:17:42;;;;;;;2.97;1.38;;;;;;;-148.56;100.00;61375.16;4910993;28;20730;-31
2022/08/15 08:20:48;;;;;;;1.83;1.30;;;;;;;-148.56;100.00;61375.16;4910923;28;20164;-32
2022/08/15 08:23:47;;;;;;;1.80;1.33;;;;;;;-148.56;100.00;61375.16;4912608;28;20031;-32
2022/08/15 08:26:34;;;;;;;3.33;1.10;;;;;;;-148.56;100.00;61375.16;4904279;28;20131;-29
2022/08/15 08:29:13;;;;;;;4.28;1.35;;;;;;;-148.56;100.00;61375.16;4933285;28;20113;-29
2022/08/15 08:32:01;;;;;;;3.25;1.40;;;;;;;-148.56;100.00;61375.16;4922223;28;22253;-29
2022/08/15 08:34:55;;;;;;;2.03;1.27;;;;;;;-148.56;100.00;61375.16;4913721;28;20029;-31
2022/08/15 08:37:37;;;;;;;3.95;1.13;;;;;;;-148.56;100.00;61375.16;4906396;28;20050;-32
2022/08/15 08:43:29;;;;;;;7.63;1.90;;;;;;;-148.56;100.00;61375.16;4910212;28;20050;-29
2022/08/15 08:46:00;;;;;;;5.40;1.63;;;;;;;-148.56;100.00;61375.16;4909962;28;20034;-28
2022/08/15 08:48:41;;;;;;;3.25;1.63;;;;;;;-148.56;100.00;61375.16;4920395;28;20038;-27
2022/08/15 08:51:21;;;;;;;3.88;1.70;;;;;;;-148.56;100.00;61375.16;4910046;28;20030;-33
2022/08/15 08:54:26;;;;;;;2.58;1.70;;;;;;;-148.56;100.00;61375.16;4920005;28;20764;-25
2022/08/15 08:56:53;;;;;;;3.40;1.60;;;;;;;-148.56;100.00;61375.16;4912354;28;20035;-31
2022/08/15 08:59:31;;;;;;;3.13;1.70;;;;;;;-148.56;100.00;61375.16;4904169;28;20041;-28
2022/08/15 09:02:00;;;;;;;2.85;1.67;;;;;;;-148.56;100.00;61375.16;4922335;28;20811;-29
2022/08/15 09:04:41;;;;;;;4.55;1.75;;;;;;;-148.56;100.00;61375.16;4918838;28;21387;-27
2022/08/15 09:07:07;;;;;;;3.88;1.73;;;;;;;-148.56;100.00;61375.16;4916041;28;20037;-24
2022/08/15 09:09:35;;;;;;;4.60;1.52;;;;;;;-148.56;100.00;61375.16;4913124;28;20042;-27
2022/08/15 09:14:54;;;;;;;5.80;1.70;;;;;;;-148.56;100.00;61375.16;4921622;28;20045;-32
2022/08/15 09:17:20;;;;;;;2.47;1.42;;;;;;;-148.56;100.00;61375.16;4914586;28;20045;-31
2022/08/15 09:19:58;;;;;;;6.38;1.50;;;;;;;-148.56;100.00;61375.16;4916671;28;20030;-31
2022/08/15 09:22:24;;;;;;;6.05;1.58;;;;;;;-148.56;100.00;61375.16;4898657;28;20041;-27
2022/08/15 09:24:49;;;;;;;2.90;1.30;;;;;;;-148.56;100.00;61375.16;4915779;28;20026;-29
2022/08/15 09:27:14;;;;;;;2.28;1.20;;;;;;;-148.56;100.00;61375.16;4917385;28;21169;-29
2022/08/15 09:29:43;;;;;;;2.08;1.38;;;;;;;-148.56;100.00;61375.16;4913752;28;20068;-28
2022/08/15 09:32:24;;;;;;;5.40;1.88;;;;;;;-148.56;100.00;61375.16;4905674;28;20497;-27
2022/08/15 09:34:55;;;;;;;4.68;1.50;;;;;;;-148.56;100.00;61375.16;4929354;28;20026;-28
2022/08/15 09:37:24;;;;;;;3.55;1.90;;;;;;;-148.56;100.00;61375.16;4933308;28;20602;-29
2022/08/15 09:39:58;;;;;;;4.82;1.70;;;;;;;-148.56;100.00;61375.16;4933153;28;20049;-31
2022/08/15 09:43:01;;;;;;;3.65;1.75;;;;;;;-148.56;100.00;61375.16;4934118;28;20030;-27
2022/08/15 09:45:46;;;;;;;2.40;1.50;;;;;;;-148.56;100.00;61375.16;4929156;28;20050;-30
2022/08/15 09:48:50;;;;;;;3.85;1.35;;;;;;;-148.56;100.00;61375.16;4921760;28;20134;-31
2022/08/15 09:51:34;;;;;;;5.72;1.40;;;;;;;-148.56;100.00;61375.16;4930425;28;20874;-28
2022/08/15 09:54:23;;;;;;;3.70;1.30;;;;;;;-148.56;100.00;61375.16;4927796;28;20034;-26
2022/08/15 09:57:07;;;;;;;2.53;1.42;;;;;;;-148.56;100.00;61375.16;4922058;28;20041;-28
2022/08/15 09:59:34;;;;;;;2.47;1.35;;;;;;;-148.56;100.00;61375.16;4934812;28;20030;-26
2022/08/15 10:02:09;;;;;;;2.05;1.40;;;;;;;-148.56;100.00;61375.16;4924187;28;20594;-25
2022/08/15 10:05:09;;;;;;;4.75;1.42;;;;;;;-148.56;100.00;61375.16;4919909;28;20108;-32
2022/08/15 10:07:52;;;;;;;3.63;1.50;;;;;;;-148.56;100.00;61375.16;4918856;28;20049;-32
2022/08/15 10:10:25;;;;;;;3.38;1.65;;;;;;;-148.56;100.00;61375.16;4917625;28;20177;-30
2022/08/15 10:13:21;;;;;;;2.42;1.55;;;;;;;-148.56;100.00;61375.16;4907363;28;20684;-27
2022/08/15 10:15:47;;;;;;;3.13;1.50;;;;;;;-148.56;100.00;61375.16;4918967;28;20042;-32
2022/08/15 10:18:27;;;;;;;2.10;1.13;;;;;;;-148.56;100.00;61375.16;4917547;28;20030;-27
2022/08/15 10:20:57;;;;;;;2.25;1.40;;;;;;;-148.56;100.00;61375.16;4914504;28;20573;-30
2022/08/15 10:23:37;;;;;;;2.88;1.33;;;;;;;-148.56;100.00;61375.16;4924529;28;20026;-29
2022/08/15 10:26:29;;;;;;;2.25;1.38;;;;;;;-148.56;100.00;61375.16;4911821;28;20073;-28
2022/08/15 10:29:17;;;;;;;2.28;1.50;;;;;;;-148.56;100.00;61375.16;4914060;28;20221;-27
2022/08/15 10:31:54;;;;;;;4.10;1.38;;;;;;;-148.56;100.00;61375.16;4917608;28;20034;-26
2022/08/15 10:34:41;;;;;;;1.83;1.20;;;;;;;-148.56;100.00;61375.16;4909342;28;20026;-31
2022/08/15 10:37:18;;;;;;;5.10;1.30;;;;;;;-148.56;100.00;61375.16;4921898;28;20229;-33
2022/08/15 10:40:07;;;;;;;4.38;1.60;;;;;;;-148.56;100.00;61375.16;4920961;28;20030;-31
2022/08/15 10:42:51;;;;;;;4.18;1.23;;;;;;;-148.56;100.00;61375.16;4913600;28;21216;-30
2022/08/15 10:45:16;;;;;;;2.47;1.30;;;;;;;-148.56;100.00;61375.16;4917438;28;20034;-28
2022/08/15 10:48:20;;;;;;;2.05;1.42;;;;;;;-148.56;100.00;61375.16;4909982;28;20060;-30
2022/08/15 10:51:10;;;;;;;1.88;1.30;;;;;;;-148.56;100.00;61375.16;4917241;28;20031;-32
2022/08/15 10:53:35;;;;;;;2.33;1.30;;;;;;;-148.56;100.00;61375.16;4907582;28;20037;-28
2022/08/15 10:56:28;;;;;;;3.95;1.27;;;;;;;-148.56;100.00;61375.16;4907884;28;20735;-33
2022/08/15 10:59:02;;;;;;;4.00;1.60;;;;;;;-148.56;100.00;61375.16;4919533;28;20062;-26
2022/08/15 11:01:32;;;;;;;2.13;1.27;;;;;;;-148.56;100.00;61375.16;4892312;28;20026;-33
2022/08/15 11:04:01;;;;;;;3.17;1.58;;;;;;;-148.56;100.00;61375.16;4911188;28;20035;-28
2022/08/15 11:06:27;;;;;;;6.05;1.85;;;;;;;-148.56;100.00;61375.16;4918857;28;20136;-26
2022/08/15 11:09:03;;;;;;;4.45;1.95;;;;;;;-148.56;100.00;61375.16;4922407;28;20081;-30
2022/08/15 11:11:32;;;;;;;5.93;2.00;;;;;;;-148.56;100.00;61375.16;4911948;28;20181;-30
2022/08/15 11:13:59;;;;;;;6.65;2.17;;;;;;;-148.56;100.00;61375.16;4927233;28;20042;-30
2022/08/15 11:16:29;;;;;;;6.78;1.90;;;;;;;-148.56;100.00;61375.16;4923121;28;20061;-33
2022/08/15 11:18:55;;;;;;;7.37;2.10;;;;;;;-148.56;100.00;61375.16;4910355;28;20170;-28
2022/08/15 11:21:27;;;;;;;9.57;2.35;;;;;;;-148.56;100.00;61375.16;4914835;28;20022;-34
2022/08/15 11:23:58;;;;;;;7.50;2.40;;;;;;;-148.56;100.00;61375.16;4914554;28;20039;-32
2022/08/15 11:26:30;;;;;;;8.13;2.40;;;;;;;-148.56;100.00;61375.16;4917588;28;20041;-31
2022/08/15 11:29:20;;;;;;;13.48;2.63;;;;;;;-148.56;100.00;61375.16;4910906;28;20236;-30
2022/08/15 11:32:03;;;;;;;9.40;2.78;;;;;;;-148.56;100.00;61375.16;4914319;28;20100;-31
2022/08/15 11:34:35;;;;;;;9.95;2.70;;;;;;;-148.56;100.00;61375.16;4907453;28;20093;-26
2022/08/15 11:37:14;;;;;;;16.23;3.05;;;;;;;-148.56;100.00;61375.16;4908301;28;20026;-28
2022/08/15 11:39:45;;;;;;;10.77;3.22;;;;;;;-148.56;100.00;61375.16;4900408;28;20849;-27
2022/08/15 11:42:17;;;;;;;11.60;3.33;;;;;;;-148.56;100.00;61375.16;4899801;28;20029;-30
2022/08/15 11:44:58;;;;;;;;;;;;;;;-148.56;100.00;61375.16;4905623;28;20562;-31